createdAt,value
2015-05-05T00:00:09.608Z,29
2015-05-05T00:00:28.374Z,29
2015-05-05T00:00:46.905Z,29
2015-05-05T00:01:05.657Z,29
2015-05-05T00:01:24.235Z,29
2015-05-05T00:01:42.892Z,29.1
2015-05-05T00:02:01.487Z,29.1
2015-05-05T00:02:20.112Z,29.1
2015-05-05T00:02:38.722Z,29.1
2015-05-05T00:02:57.709Z,29.1
2015-05-05T00:03:16.334Z,29.1
2015-05-05T00:03:35.022Z,29.1
2015-05-05T00:03:53.555Z,29.1
2015-05-05T00:04:12.211Z,29.1
2015-05-05T00:04:30.852Z,29.1
2015-05-05T00:04:49.649Z,29.1
2015-05-05T00:05:08.323Z,29.1
2015-05-05T00:05:26.744Z,29.1
2015-05-05T00:05:45.416Z,29.1
2015-05-05T00:06:03.887Z,29.1
2015-05-05T00:06:22.028Z,29.1
2015-05-05T00:06:40.434Z,29.1
2015-05-05T00:06:58.983Z,29.1
2015-05-05T00:07:17.483Z,29.1
2015-05-05T00:07:36.170Z,29.1
2015-05-05T00:07:54.577Z,29.1
2015-05-05T00:08:13.095Z,29.1
2015-05-05T00:08:31.814Z,29.1
2015-05-05T00:08:50.626Z,29.1
2015-05-05T00:09:09.066Z,29
2015-05-05T00:09:27.628Z,29
2015-05-05T00:09:46.191Z,29
2015-05-05T00:10:04.975Z,29
2015-05-05T00:10:23.460Z,29
2015-05-05T00:10:42.241Z,29
2015-05-05T00:11:00.946Z,28.9
2015-05-05T00:11:19.665Z,28.9
2015-05-05T00:11:38.352Z,28.9
2015-05-05T00:11:57.040Z,28.9
2015-05-05T00:12:15.433Z,28.9
2015-05-05T00:12:33.871Z,28.9
2015-05-05T00:12:52.308Z,28.9
2015-05-05T00:13:10.779Z,28.9
2015-05-05T00:13:29.170Z,28.9
2015-05-05T00:13:47.888Z,28.9
2015-05-05T00:14:06.406Z,28.9
2015-05-05T00:14:25.015Z,28.9
2015-05-05T00:14:43.562Z,28.8
2015-05-05T00:15:02.094Z,28.8
2015-05-05T00:15:20.580Z,28.8
2015-05-05T00:15:38.971Z,28.8
2015-05-05T00:15:57.377Z,28.8
2015-05-05T00:16:16.083Z,28.8
2015-05-05T00:16:34.520Z,28.8
2015-05-05T00:16:52.958Z,28.8
2015-05-05T00:17:11.460Z,28.8
2015-05-05T00:17:30.210Z,28.8
2015-05-05T00:17:48.788Z,28.8
2015-05-05T00:18:07.288Z,28.9
2015-05-05T00:18:25.729Z,28.9
2015-05-05T00:18:44.182Z,28.8
2015-05-05T00:19:02.604Z,28.8
2015-05-05T00:19:21.107Z,28.8
2015-05-05T00:19:39.591Z,28.8
2015-05-05T00:19:58.185Z,28.8
2015-05-05T00:20:16.575Z,28.8
2015-05-05T00:20:35.421Z,28.8
2015-05-05T00:20:53.890Z,28.8
2015-05-05T00:21:12.530Z,28.8
2015-05-05T00:21:31.173Z,28.8
2015-05-05T00:21:49.845Z,28.8
2015-05-05T00:22:08.517Z,28.8
2015-05-05T00:22:27.173Z,28.8
2015-05-05T00:22:45.723Z,28.7
2015-05-05T00:23:04.129Z,28.7
2015-05-05T00:23:22.770Z,28.7
2015-05-05T00:23:41.522Z,28.7
2015-05-05T00:24:00.006Z,28.7
2015-05-05T00:24:18.741Z,28.7
2015-05-05T00:24:37.274Z,28.7
2015-05-05T00:24:55.664Z,28.7
2015-05-05T00:25:14.149Z,28.7
2015-05-05T00:25:32.727Z,28.7
2015-05-05T00:25:51.558Z,28.6
2015-05-05T00:26:10.371Z,28.6
2015-05-05T00:26:28.824Z,28.6
2015-05-05T00:26:47.624Z,28.6
2015-05-05T00:27:06.342Z,28.6
2015-05-05T00:27:24.889Z,28.6
2015-05-05T00:27:43.281Z,28.6
2015-05-05T00:28:01.937Z,28.6
2015-05-05T00:28:20.546Z,28.5
2015-05-05T00:28:39.096Z,28.5
2015-05-05T00:28:58.065Z,28.5
2015-05-05T00:29:16.190Z,28.5
2015-05-05T00:29:34.565Z,28.4
2015-05-05T00:29:53.364Z,28.4
2015-05-05T00:30:11.801Z,28.4
2015-05-05T00:30:30.536Z,28.4
2015-05-05T00:30:49.194Z,28.4
2015-05-05T00:31:07.850Z,28.4
2015-05-05T00:31:26.522Z,28.4
2015-05-05T00:31:44.916Z,28.4
2015-05-05T00:32:03.525Z,28.4
2015-05-05T00:32:21.947Z,28.4
2015-05-05T00:32:40.387Z,28.4
2015-05-05T00:32:59.168Z,28.4
2015-05-05T00:33:17.871Z,28.4
2015-05-05T00:33:36.449Z,28.4
2015-05-05T00:33:54.921Z,28.4
2015-05-05T00:34:13.796Z,28.4
2015-05-05T00:34:32.186Z,28.4
2015-05-05T00:34:50.688Z,28.4
2015-05-05T00:35:09.079Z,28.4
2015-05-05T00:35:27.782Z,28.4
2015-05-05T00:35:46.409Z,28.4
2015-05-05T00:36:05.253Z,28.4
2015-05-05T00:36:23.847Z,28.4
2015-05-05T00:36:42.378Z,28.4
2015-05-05T00:37:00.192Z,28.3
2015-05-05T00:37:18.864Z,28.3
2015-05-05T00:37:37.317Z,28.3
2015-05-05T00:37:55.820Z,28.3
2015-05-05T00:38:14.414Z,28.3
2015-05-05T00:38:33.055Z,28.3
2015-05-05T00:38:51.758Z,28.3
2015-05-05T00:39:10.151Z,28.3
2015-05-05T00:39:28.994Z,28.3
2015-05-05T00:39:47.104Z,28.3
2015-05-05T00:40:05.497Z,28.2
2015-05-05T00:40:23.950Z,28.3
2015-05-05T00:40:42.419Z,28.2
2015-05-05T00:41:01.107Z,28.3
2015-05-05T00:41:20.109Z,28.3
2015-05-05T00:41:38.812Z,28.2
2015-05-05T00:41:57.546Z,28.3
2015-05-05T00:42:15.940Z,28.3
2015-05-05T00:42:34.596Z,28.3
2015-05-05T00:42:52.971Z,28.2
2015-05-05T00:43:11.536Z,28.2
2015-05-05T00:43:29.942Z,28.2
2015-05-05T00:43:48.332Z,28.2
2015-05-05T00:44:06.723Z,28.2
2015-05-05T00:44:25.256Z,28.2
2015-05-05T00:44:43.850Z,28.2
2015-05-05T00:45:02.475Z,28.2
2015-05-05T00:45:21.008Z,28.2
2015-05-05T00:45:39.618Z,28.2
2015-05-05T00:45:58.461Z,28.2
2015-05-05T00:46:17.011Z,28.1
2015-05-05T00:46:35.589Z,28.1
2015-05-05T00:46:54.261Z,28.1
2015-05-05T00:47:12.185Z,28.1
2015-05-05T00:47:30.795Z,28.1
2015-05-05T00:47:49.341Z,28.1
2015-05-05T00:48:07.998Z,28.1
2015-05-05T00:48:26.438Z,28.1
2015-05-05T00:48:44.844Z,28.1
2015-05-05T00:49:03.673Z,28.1
2015-05-05T00:49:22.284Z,28.1
2015-05-05T00:49:40.971Z,28
2015-05-05T00:49:59.440Z,28
2015-05-05T00:50:17.834Z,28
2015-05-05T00:50:36.459Z,28
2015-05-05T00:50:54.974Z,28
2015-05-05T00:51:13.662Z,28
2015-05-05T00:51:32.538Z,28
2015-05-05T00:51:51.069Z,28
2015-05-05T00:52:09.757Z,28
2015-05-05T00:52:28.182Z,27.9
2015-05-05T00:52:46.963Z,27.9
2015-05-05T00:53:05.635Z,27.9
2015-05-05T00:53:24.309Z,27.9
2015-05-05T00:53:42.793Z,27.9
2015-05-05T00:54:01.277Z,27.9
2015-05-05T00:54:20.077Z,27.9
2015-05-05T00:54:38.890Z,27.9
2015-05-05T00:54:57.499Z,27.9
2015-05-05T00:55:16.062Z,27.8
2015-05-05T00:55:34.907Z,27.8
2015-05-05T00:55:53.767Z,27.8
2015-05-05T00:56:12.439Z,27.8
2015-05-05T00:56:30.847Z,27.8
2015-05-05T00:56:49.394Z,27.8
2015-05-05T00:57:08.019Z,27.8
2015-05-05T00:57:26.553Z,27.8
2015-05-05T00:57:45.006Z,27.8
2015-05-05T00:58:03.756Z,27.8
2015-05-05T00:58:22.350Z,27.7
2015-05-05T00:58:40.836Z,27.7
2015-05-05T00:58:59.399Z,27.7
2015-05-05T00:59:17.164Z,27.7
2015-05-05T00:59:35.745Z,27.7
2015-05-05T00:59:54.136Z,27.7
2015-05-05T01:00:12.527Z,27.7
2015-05-05T01:00:30.980Z,27.7
2015-05-05T01:00:49.607Z,27.7
2015-05-05T01:01:08.044Z,27.7
2015-05-05T01:01:26.591Z,27.7
2015-05-05T01:01:45.297Z,27.7
2015-05-05T01:02:03.829Z,27.7
2015-05-05T01:02:22.313Z,27.6
2015-05-05T01:02:40.750Z,27.6
2015-05-05T01:02:59.346Z,27.6
2015-05-05T01:03:17.737Z,27.6
2015-05-05T01:03:36.190Z,27.6
2015-05-05T01:03:54.849Z,27.6
2015-05-05T01:04:13.240Z,27.6
2015-05-05T01:04:31.755Z,27.6
2015-05-05T01:04:50.490Z,27.6
2015-05-05T01:05:09.071Z,27.6
2015-05-05T01:05:27.508Z,27.6
2015-05-05T01:05:46.024Z,27.6
2015-05-05T01:06:04.464Z,27.6
2015-05-05T01:06:22.854Z,27.6
2015-05-05T01:06:41.323Z,27.6
2015-05-05T01:06:59.700Z,27.6
2015-05-05T01:07:18.091Z,27.6
2015-05-05T01:07:36.575Z,27.6
2015-05-05T01:07:55.200Z,27.6
2015-05-05T01:08:13.577Z,27.6
2015-05-05T01:08:32.077Z,27.6
2015-05-05T01:08:50.530Z,27.6
2015-05-05T01:09:09.361Z,27.6
2015-05-05T01:09:28.017Z,27.6
2015-05-05T01:09:46.455Z,27.6
2015-05-05T01:10:04.957Z,27.6
2015-05-05T01:10:23.519Z,27.6
2015-05-05T01:10:42.254Z,27.6
2015-05-05T01:11:00.960Z,27.6
2015-05-05T01:11:19.538Z,27.5
2015-05-05T01:11:38.226Z,27.6
2015-05-05T01:11:56.710Z,27.6
2015-05-05T01:12:15.806Z,27.6
2015-05-05T01:12:34.306Z,27.6
2015-05-05T01:12:52.712Z,27.5
2015-05-05T01:13:11.309Z,27.6
2015-05-05T01:13:29.840Z,27.6
2015-05-05T01:13:48.449Z,27.6
2015-05-05T01:14:06.949Z,27.6
2015-05-05T01:14:25.514Z,27.6
2015-05-05T01:14:44.123Z,27.6
2015-05-05T01:15:02.514Z,27.6
2015-05-05T01:15:21.297Z,27.6
2015-05-05T01:15:39.781Z,27.6
2015-05-05T01:15:58.328Z,27.6
2015-05-05T01:16:16.797Z,27.6
2015-05-05T01:16:35.378Z,27.5
2015-05-05T01:16:53.988Z,27.6
2015-05-05T01:17:12.675Z,27.5
2015-05-05T01:17:31.177Z,27.5
2015-05-05T01:17:49.615Z,27.5
2015-05-05T01:18:08.271Z,27.5
2015-05-05T01:18:27.083Z,27.5
2015-05-05T01:18:45.680Z,27.5
2015-05-05T01:19:04.102Z,27.5
2015-05-05T01:19:22.868Z,27.5
2015-05-05T01:19:41.463Z,27.5
2015-05-05T01:20:00.088Z,27.5
2015-05-05T01:20:18.510Z,27.5
2015-05-05T01:20:37.135Z,27.5
2015-05-05T01:20:55.716Z,27.5
2015-05-05T01:21:14.232Z,27.5
2015-05-05T01:21:32.716Z,27.5
2015-05-05T01:21:51.281Z,27.5
2015-05-05T01:22:09.671Z,27.5
2015-05-05T01:22:28.125Z,27.5
2015-05-05T01:22:46.921Z,27.5
2015-05-05T01:23:05.393Z,27.5
2015-05-05T01:23:24.049Z,27.5
2015-05-05T01:23:42.831Z,27.5
2015-05-05T01:24:01.348Z,27.5
2015-05-05T01:24:19.958Z,27.5
2015-05-05T01:24:38.505Z,27.5
2015-05-05T01:24:57.239Z,27.4
2015-05-05T01:25:15.945Z,27.5
2015-05-05T01:25:34.336Z,27.4
2015-05-05T01:25:52.914Z,27.4
2015-05-05T01:26:11.494Z,27.4
2015-05-05T01:26:30.025Z,27.4
2015-05-05T01:26:48.697Z,27.4
2015-05-05T01:27:07.291Z,27.4
2015-05-05T01:27:26.044Z,27.4
2015-05-05T01:27:44.575Z,27.4
2015-05-05T01:28:03.044Z,27.4
2015-05-05T01:28:21.437Z,27.4
2015-05-05T01:28:39.937Z,27.4
2015-05-05T01:28:58.359Z,27.4
2015-05-05T01:29:16.891Z,27.4
2015-05-05T01:29:35.610Z,27.3
2015-05-05T01:29:54.126Z,27.3
2015-05-05T01:30:12.923Z,27.3
2015-05-05T01:30:31.488Z,27.3
2015-05-05T01:30:50.332Z,27.3
2015-05-05T01:31:08.973Z,27.3
2015-05-05T01:31:27.504Z,27.3
2015-05-05T01:31:46.085Z,27.3
2015-05-05T01:32:04.554Z,27.3
2015-05-05T01:32:23.507Z,27.3
2015-05-05T01:32:42.087Z,27.3
2015-05-05T01:33:00.587Z,27.3
2015-05-05T01:33:19.025Z,27.2
2015-05-05T01:33:37.650Z,27.2
2015-05-05T01:33:56.168Z,27.2
2015-05-05T01:34:14.668Z,27.2
2015-05-05T01:34:33.403Z,27.2
2015-05-05T01:34:51.952Z,27.2
2015-05-05T01:35:10.562Z,27.2
2015-05-05T01:35:29.499Z,27.2
2015-05-05T01:35:48.265Z,27.2
2015-05-05T01:36:06.828Z,27.2
2015-05-05T01:36:25.266Z,27.2
2015-05-05T01:36:43.610Z,27.2
2015-05-05T01:37:02.411Z,27.2
2015-05-05T01:37:20.879Z,27.2
2015-05-05T01:37:39.395Z,27.2
2015-05-05T01:37:57.973Z,27.2
2015-05-05T01:38:16.686Z,27.1
2015-05-05T01:38:35.499Z,27.1
2015-05-05T01:38:54.139Z,27.1
2015-05-05T01:39:12.825Z,27.1
2015-05-05T01:39:31.200Z,27.1
2015-05-05T01:39:49.700Z,27.1
2015-05-05T01:40:08.497Z,27.1
2015-05-05T01:40:27.151Z,27.1
2015-05-05T01:40:45.682Z,27.1
2015-05-05T01:41:04.088Z,27.1
2015-05-05T01:41:22.587Z,27.1
2015-05-05T01:41:41.008Z,27.1
2015-05-05T01:41:59.493Z,27.1
2015-05-05T01:42:18.102Z,27.1
2015-05-05T01:42:36.740Z,27
2015-05-05T01:42:55.256Z,27
2015-05-05T01:43:13.521Z,27
2015-05-05T01:43:31.949Z,27
2015-05-05T01:43:50.527Z,27
2015-05-05T01:44:08.981Z,27
2015-05-05T01:44:27.356Z,27
2015-05-05T01:44:45.863Z,27
2015-05-05T01:45:04.597Z,27
2015-05-05T01:45:23.238Z,27
2015-05-05T01:45:41.774Z,27
2015-05-05T01:46:00.368Z,27
2015-05-05T01:46:18.899Z,27
2015-05-05T01:46:37.289Z,27
2015-05-05T01:46:55.937Z,27
2015-05-05T01:47:14.468Z,27
2015-05-05T01:47:32.890Z,27
2015-05-05T01:47:51.333Z,26.9
2015-05-05T01:48:09.958Z,27
2015-05-05T01:48:28.536Z,26.9
2015-05-05T01:48:47.020Z,26.9
2015-05-05T01:49:05.773Z,26.9
2015-05-05T01:49:24.414Z,26.9
2015-05-05T01:49:42.883Z,26.9
2015-05-05T01:50:01.527Z,26.9
2015-05-05T01:50:20.090Z,26.9
2015-05-05T01:50:38.480Z,26.9
2015-05-05T01:50:56.918Z,26.8
2015-05-05T01:51:15.422Z,26.8
2015-05-05T01:51:34.359Z,26.8
2015-05-05T01:51:53.000Z,26.8
2015-05-05T01:52:11.457Z,26.8
2015-05-05T01:52:30.395Z,26.8
2015-05-05T01:52:48.832Z,26.8
2015-05-05T01:53:07.285Z,26.8
2015-05-05T01:53:26.023Z,26.8
2015-05-05T01:53:44.663Z,26.8
2015-05-05T01:54:03.132Z,26.8
2015-05-05T01:54:21.557Z,26.8
2015-05-05T01:54:40.041Z,26.8
2015-05-05T01:54:58.979Z,26.7
2015-05-05T01:55:17.572Z,26.8
2015-05-05T01:55:36.358Z,26.7
2015-05-05T01:55:54.842Z,26.7
2015-05-05T01:56:13.233Z,26.7
2015-05-05T01:56:31.642Z,26.7
2015-05-05T01:56:50.079Z,26.7
2015-05-05T01:57:08.939Z,26.7
2015-05-05T01:57:27.329Z,26.7
2015-05-05T01:57:45.879Z,26.7
2015-05-05T01:58:04.536Z,26.7
2015-05-05T01:58:23.286Z,26.7
2015-05-05T01:58:41.726Z,26.7
2015-05-05T01:59:00.179Z,26.7
2015-05-05T01:59:18.773Z,26.7
2015-05-05T01:59:37.257Z,26.7
2015-05-05T01:59:55.822Z,26.7
2015-05-05T02:00:14.416Z,26.7
2015-05-05T02:00:32.806Z,26.7
2015-05-05T02:00:51.356Z,26.7
2015-05-05T02:01:09.747Z,26.7
2015-05-05T02:01:28.590Z,26.7
2015-05-05T02:01:47.169Z,26.7
2015-05-05T02:02:05.764Z,26.7
2015-05-05T02:02:24.327Z,26.7
2015-05-05T02:02:42.874Z,26.7
2015-05-05T02:03:01.267Z,26.7
2015-05-05T02:03:20.017Z,26.6
2015-05-05T02:03:38.408Z,26.6
2015-05-05T02:03:56.783Z,26.6
2015-05-05T02:04:15.238Z,26.6
2015-05-05T02:04:33.676Z,26.6
2015-05-05T02:04:52.176Z,26.6
2015-05-05T02:05:10.569Z,26.6
2015-05-05T02:05:29.272Z,26.6
2015-05-05T02:05:47.975Z,26.6
2015-05-05T02:06:06.569Z,26.6
2015-05-05T02:06:24.931Z,26.6
2015-05-05T02:06:43.556Z,26.6
2015-05-05T02:07:02.181Z,26.6
2015-05-05T02:07:20.698Z,26.6
2015-05-05T02:07:39.089Z,26.6
2015-05-05T02:07:57.808Z,26.6
2015-05-05T02:08:16.292Z,26.6
2015-05-05T02:08:34.811Z,26.6
2015-05-05T02:08:53.201Z,26.6
2015-05-05T02:09:11.639Z,26.6
2015-05-05T02:09:30.078Z,26.6
2015-05-05T02:09:48.672Z,26.6
2015-05-05T02:10:07.172Z,26.6
2015-05-05T02:10:25.563Z,26.6
2015-05-05T02:10:44.019Z,26.6
2015-05-05T02:11:02.691Z,26.6
2015-05-05T02:11:21.206Z,26.6
2015-05-05T02:11:39.694Z,26.6
2015-05-05T02:11:58.272Z,26.6
2015-05-05T02:12:16.990Z,26.6
2015-05-05T02:12:35.647Z,26.6
2015-05-05T02:12:54.274Z,26.6
2015-05-05T02:13:13.008Z,26.6
2015-05-05T02:13:31.399Z,26.6
2015-05-05T02:13:49.839Z,26.6
2015-05-05T02:14:08.527Z,26.6
2015-05-05T02:14:27.074Z,26.6
2015-05-05T02:14:45.495Z,26.6
2015-05-05T02:15:04.372Z,26.6
2015-05-05T02:15:23.013Z,26.6
2015-05-05T02:15:41.560Z,26.6
2015-05-05T02:16:00.218Z,26.7
2015-05-05T02:16:18.640Z,26.7
2015-05-05T02:16:37.140Z,26.7
2015-05-05T02:16:55.549Z,26.7
2015-05-05T02:17:13.971Z,26.7
2015-05-05T02:17:32.362Z,26.7
2015-05-05T02:17:50.768Z,26.7
2015-05-05T02:18:09.379Z,26.7
2015-05-05T02:18:27.864Z,26.7
2015-05-05T02:18:46.395Z,26.7
2015-05-05T02:19:04.851Z,26.7
2015-05-05T02:19:23.320Z,26.7
2015-05-05T02:19:41.757Z,26.7
2015-05-05T02:20:00.304Z,26.7
2015-05-05T02:20:18.698Z,26.7
2015-05-05T02:20:37.089Z,26.7
2015-05-05T02:20:55.651Z,26.7
2015-05-05T02:21:14.216Z,26.7
2015-05-05T02:21:32.809Z,26.7
2015-05-05T02:21:51.262Z,26.7
2015-05-05T02:22:09.684Z,26.8
2015-05-05T02:22:28.139Z,26.8
2015-05-05T02:22:46.796Z,26.8
2015-05-05T02:23:05.264Z,26.8
2015-05-05T02:23:23.736Z,26.8
2015-05-05T02:23:42.408Z,26.8
2015-05-05T02:24:00.908Z,26.8
2015-05-05T02:24:19.330Z,26.8
2015-05-05T02:24:38.130Z,26.8
2015-05-05T02:24:56.520Z,26.8
2015-05-05T02:25:15.458Z,26.8
2015-05-05T02:25:33.851Z,26.8
2015-05-05T02:25:52.382Z,26.8
2015-05-05T02:26:11.069Z,26.8
2015-05-05T02:26:29.569Z,26.8
2015-05-05T02:26:48.135Z,26.8
2015-05-05T02:27:06.510Z,26.8
2015-05-05T02:27:24.900Z,26.8
2015-05-05T02:27:43.356Z,26.8
2015-05-05T02:28:02.137Z,26.8
2015-05-05T02:28:20.715Z,26.8
2015-05-05T02:28:39.106Z,26.8
2015-05-05T02:28:57.545Z,26.8
2015-05-05T02:29:15.936Z,26.9
2015-05-05T02:29:34.529Z,26.8
2015-05-05T02:29:53.017Z,26.8
2015-05-05T02:30:11.595Z,26.8
2015-05-05T02:30:29.970Z,26.8
2015-05-05T02:30:48.595Z,26.8
2015-05-05T02:31:06.988Z,26.8
2015-05-05T02:31:25.488Z,26.8
2015-05-05T02:31:44.019Z,26.8
2015-05-05T02:32:02.475Z,26.8
2015-05-05T02:32:21.069Z,26.8
2015-05-05T02:32:39.475Z,26.8
2015-05-05T02:32:58.006Z,26.8
2015-05-05T02:33:16.650Z,26.8
2015-05-05T02:33:35.040Z,26.8
2015-05-05T02:33:53.431Z,26.8
2015-05-05T02:34:11.855Z,26.8
2015-05-05T02:34:30.246Z,26.9
2015-05-05T02:34:48.964Z,26.8
2015-05-05T02:35:07.449Z,26.8
2015-05-05T02:35:25.919Z,26.9
2015-05-05T02:35:44.419Z,26.8
2015-05-05T02:36:02.998Z,26.9
2015-05-05T02:36:21.594Z,26.9
2015-05-05T02:36:40.016Z,26.9
2015-05-05T02:36:58.766Z,26.9
2015-05-05T02:37:17.344Z,26.9
2015-05-05T02:37:35.754Z,26.9
2015-05-05T02:37:54.457Z,26.9
2015-05-05T02:38:13.019Z,26.9
2015-05-05T02:38:31.661Z,26.9
2015-05-05T02:38:50.301Z,26.9
2015-05-05T02:39:08.848Z,26.9
2015-05-05T02:39:27.380Z,26.9
2015-05-05T02:39:45.836Z,26.9
2015-05-05T02:40:04.758Z,26.9
2015-05-05T02:40:23.258Z,26.9
2015-05-05T02:40:41.714Z,26.9
2015-05-05T02:41:00.448Z,26.9
2015-05-05T02:41:18.854Z,26.9
2015-05-05T02:41:37.432Z,27
2015-05-05T02:41:55.998Z,26.9
2015-05-05T02:42:14.670Z,26.9
2015-05-05T02:42:33.420Z,26.9
2015-05-05T02:42:51.844Z,26.9
2015-05-05T02:43:10.312Z,26.9
2015-05-05T02:43:28.719Z,27
2015-05-05T02:43:47.156Z,26.9
2015-05-05T02:44:05.846Z,26.9
2015-05-05T02:44:24.643Z,27
2015-05-05T02:44:43.268Z,27
2015-05-05T02:45:01.879Z,27
2015-05-05T02:45:20.535Z,27
2015-05-05T02:45:39.113Z,27
2015-05-05T02:45:57.691Z,27
2015-05-05T02:46:16.226Z,27
2015-05-05T02:46:34.913Z,27
2015-05-05T02:46:53.444Z,27
2015-05-05T02:47:12.401Z,27
2015-05-05T02:47:31.057Z,27
2015-05-05T02:47:49.729Z,27
2015-05-05T02:48:08.541Z,27
2015-05-05T02:48:26.966Z,27
2015-05-05T02:48:45.341Z,27
2015-05-05T02:49:03.935Z,27
2015-05-05T02:49:22.374Z,27
2015-05-05T02:49:40.781Z,27
2015-05-05T02:49:59.390Z,27
2015-05-05T02:50:18.187Z,27
2015-05-05T02:50:36.736Z,27
2015-05-05T02:50:54.579Z,27
2015-05-05T02:51:13.048Z,27
2015-05-05T02:51:31.661Z,27
2015-05-05T02:51:50.239Z,27
2015-05-05T02:52:09.036Z,27
2015-05-05T02:52:27.551Z,27
2015-05-05T02:52:46.178Z,27
2015-05-05T02:53:04.694Z,27
2015-05-05T02:53:23.319Z,27
2015-05-05T02:53:41.899Z,27
2015-05-05T02:54:00.461Z,27
2015-05-05T02:54:18.915Z,27
2015-05-05T02:54:37.633Z,27
2015-05-05T02:54:56.277Z,27
2015-05-05T02:55:14.699Z,27
2015-05-05T02:55:33.121Z,27
2015-05-05T02:55:50.982Z,27
2015-05-05T02:56:09.451Z,27
2015-05-05T02:56:27.935Z,27
2015-05-05T02:56:46.685Z,27
2015-05-05T02:57:05.454Z,27
2015-05-05T02:57:23.876Z,26.9
2015-05-05T02:57:41.798Z,26.9
2015-05-05T02:58:00.347Z,26.9
2015-05-05T02:58:18.785Z,26.9
2015-05-05T02:58:37.285Z,26.9
2015-05-05T02:58:55.754Z,26.9
2015-05-05T02:59:14.287Z,26.9
2015-05-05T02:59:32.818Z,26.9
2015-05-05T02:59:51.287Z,26.9
2015-05-05T03:00:09.681Z,26.9
2015-05-05T03:00:28.087Z,26.9
2015-05-05T03:00:46.806Z,26.9
2015-05-05T03:01:05.243Z,26.9
2015-05-05T03:01:23.917Z,26.9
2015-05-05T03:01:42.339Z,26.8
2015-05-05T03:02:00.979Z,26.9
2015-05-05T03:02:19.497Z,26.9
2015-05-05T03:02:37.919Z,26.9
2015-05-05T03:02:56.341Z,26.9
2015-05-05T03:03:14.950Z,26.9
2015-05-05T03:03:33.406Z,26.9
2015-05-05T03:03:51.797Z,26.9
2015-05-05T03:04:10.375Z,26.9
2015-05-05T03:04:29.159Z,26.9
2015-05-05T03:04:47.691Z,26.9
2015-05-05T03:05:06.441Z,26.9
2015-05-05T03:05:25.019Z,26.9
2015-05-05T03:05:43.411Z,26.9
2015-05-05T03:06:01.880Z,26.9
2015-05-05T03:06:20.458Z,26.8
2015-05-05T03:06:38.867Z,26.8
2015-05-05T03:06:57.492Z,26.8
2015-05-05T03:07:16.102Z,26.8
2015-05-05T03:07:34.008Z,26.8
2015-05-05T03:07:52.510Z,26.8
2015-05-05T03:08:10.932Z,26.8
2015-05-05T03:08:29.604Z,26.8
2015-05-05T03:08:48.090Z,26.8
2015-05-05T03:09:06.778Z,26.8
2015-05-05T03:09:25.246Z,26.8
2015-05-05T03:09:43.825Z,26.8
2015-05-05T03:10:02.264Z,26.8
2015-05-05T03:10:20.717Z,26.8
2015-05-05T03:10:39.389Z,26.8
2015-05-05T03:10:57.909Z,26.8
2015-05-05T03:11:16.659Z,26.8
2015-05-05T03:11:35.221Z,26.8
2015-05-05T03:11:53.799Z,26.8
2015-05-05T03:12:12.254Z,26.8
2015-05-05T03:12:30.786Z,26.8
2015-05-05T03:12:49.567Z,26.8
2015-05-05T03:13:08.132Z,26.8
2015-05-05T03:13:26.945Z,26.9
2015-05-05T03:13:45.539Z,26.8
2015-05-05T03:14:04.086Z,26.8
2015-05-05T03:14:22.697Z,26.9
2015-05-05T03:14:41.259Z,26.9
2015-05-05T03:14:59.791Z,26.9
2015-05-05T03:15:18.496Z,26.9
2015-05-05T03:15:37.152Z,26.9
2015-05-05T03:15:55.652Z,26.9
2015-05-05T03:16:14.136Z,26.9
2015-05-05T03:16:32.560Z,26.9
2015-05-05T03:16:51.138Z,26.9
2015-05-05T03:17:09.576Z,26.9
2015-05-05T03:17:28.329Z,26.9
2015-05-05T03:17:46.860Z,26.9
2015-05-05T03:18:05.391Z,26.9
2015-05-05T03:18:23.845Z,26.9
2015-05-05T03:18:42.238Z,26.9
2015-05-05T03:19:00.707Z,26.9
2015-05-05T03:19:19.207Z,26.9
2015-05-05T03:19:37.663Z,26.9
2015-05-05T03:19:56.288Z,26.9
2015-05-05T03:20:14.819Z,26.9
2015-05-05T03:20:33.241Z,26.9
2015-05-05T03:20:51.853Z,26.9
2015-05-05T03:21:10.571Z,26.9
2015-05-05T03:21:29.009Z,26.9
2015-05-05T03:21:47.824Z,26.8
2015-05-05T03:22:06.559Z,26.8
2015-05-05T03:22:25.012Z,26.8
2015-05-05T03:22:43.715Z,26.8
2015-05-05T03:23:02.186Z,26.8
2015-05-05T03:23:20.873Z,26.8
2015-05-05T03:23:39.576Z,26.8
2015-05-05T03:23:58.111Z,26.8
2015-05-05T03:24:16.673Z,26.8
2015-05-05T03:24:35.173Z,26.8
2015-05-05T03:24:53.611Z,26.8
2015-05-05T03:25:12.003Z,26.8
2015-05-05T03:25:30.253Z,26.8
2015-05-05T03:25:48.753Z,26.8
2015-05-05T03:26:07.271Z,26.8
2015-05-05T03:26:25.661Z,26.8
2015-05-05T03:26:44.177Z,26.8
2015-05-05T03:27:02.646Z,26.8
2015-05-05T03:27:21.086Z,26.8
2015-05-05T03:27:48.524Z,26.8
2015-05-05T03:28:06.914Z,26.8
2015-05-05T03:28:25.495Z,26.8
2015-05-05T03:28:44.276Z,26.8
2015-05-05T03:29:02.729Z,26.8
2015-05-05T03:29:21.387Z,26.8
2015-05-05T03:29:40.059Z,26.8
2015-05-05T03:29:58.512Z,26.8
2015-05-05T03:30:16.937Z,26.8
2015-05-05T03:30:35.625Z,26.8
2015-05-05T03:30:54.078Z,26.8
2015-05-05T03:31:12.484Z,26.8
2015-05-05T03:31:31.064Z,26.8
2015-05-05T03:31:49.439Z,26.8
2015-05-05T03:32:07.892Z,26.8
2015-05-05T03:32:26.317Z,26.8
2015-05-05T03:32:44.739Z,26.8
2015-05-05T03:33:03.130Z,26.8
2015-05-05T03:33:21.520Z,26.8
2015-05-05T03:33:39.944Z,26.8
2015-05-05T03:33:58.366Z,26.8
2015-05-05T03:34:16.866Z,26.8
2015-05-05T03:34:35.447Z,26.8
2015-05-05T03:34:53.838Z,26.8
2015-05-05T03:35:12.338Z,26.7
2015-05-05T03:35:30.947Z,26.7
2015-05-05T03:35:49.512Z,26.8
2015-05-05T03:36:08.105Z,26.8
2015-05-05T03:36:26.715Z,26.7
2015-05-05T03:36:45.171Z,26.8
2015-05-05T03:37:03.624Z,26.8
2015-05-05T03:37:22.093Z,26.8
2015-05-05T03:37:40.499Z,26.8
2015-05-05T03:37:58.908Z,26.8
2015-05-05T03:38:17.408Z,26.8
2015-05-05T03:38:35.846Z,26.8
2015-05-05T03:38:54.550Z,26.8
2015-05-05T03:39:12.956Z,26.8
2015-05-05T03:39:31.440Z,26.8
2015-05-05T03:39:49.831Z,26.8
2015-05-05T03:40:08.523Z,26.8
2015-05-05T03:40:26.929Z,26.8
2015-05-05T03:40:45.319Z,26.8
2015-05-05T03:41:03.728Z,26.8
2015-05-05T03:41:22.337Z,26.9
2015-05-05T03:41:40.931Z,26.8
2015-05-05T03:41:59.462Z,26.9
2015-05-05T03:42:18.058Z,26.9
2015-05-05T03:42:36.448Z,26.9
2015-05-05T03:42:54.870Z,26.9
2015-05-05T03:43:13.389Z,26.9
2015-05-05T03:43:31.795Z,26.9
2015-05-05T03:43:50.405Z,26.9
2015-05-05T03:44:08.780Z,26.9
2015-05-05T03:44:27.188Z,26.9
2015-05-05T03:44:45.766Z,26.9
2015-05-05T03:45:04.313Z,26.9
2015-05-05T03:45:22.722Z,26.9
2015-05-05T03:45:41.238Z,26.9
2015-05-05T03:45:59.816Z,26.9
2015-05-05T03:46:18.269Z,26.9
2015-05-05T03:46:36.724Z,26.9
2015-05-05T03:46:55.287Z,26.9
2015-05-05T03:47:13.724Z,26.9
2015-05-05T03:47:32.383Z,26.9
2015-05-05T03:47:50.899Z,26.9
2015-05-05T03:48:09.399Z,26.9
2015-05-05T03:48:27.805Z,26.9
2015-05-05T03:48:46.526Z,26.9
2015-05-05T03:49:04.917Z,26.9
2015-05-05T03:49:23.729Z,27
2015-05-05T03:49:41.607Z,27
2015-05-05T03:50:00.248Z,27
2015-05-05T03:50:18.966Z,26.9
2015-05-05T03:50:37.373Z,26.9
2015-05-05T03:50:55.859Z,27
2015-05-05T03:51:14.468Z,27
2015-05-05T03:51:33.000Z,27
2015-05-05T03:51:50.815Z,27
2015-05-05T03:52:09.253Z,27
2015-05-05T03:52:27.784Z,27
2015-05-05T03:52:46.456Z,27
2015-05-05T03:53:04.848Z,27
2015-05-05T03:53:23.505Z,27
2015-05-05T03:53:42.020Z,27
2015-05-05T03:54:00.460Z,27
2015-05-05T03:54:18.897Z,27
2015-05-05T03:54:37.507Z,27
2015-05-05T03:54:55.929Z,27
2015-05-05T03:55:14.510Z,27
2015-05-05T03:55:33.041Z,27
2015-05-05T03:55:51.463Z,27
2015-05-05T03:56:10.168Z,27
2015-05-05T03:56:28.637Z,27
2015-05-05T03:56:47.105Z,27
2015-05-05T03:57:05.559Z,27
2015-05-05T03:57:23.952Z,27
2015-05-05T03:57:42.546Z,27
2015-05-05T03:58:00.983Z,27
2015-05-05T03:58:19.486Z,27.1
2015-05-05T03:58:38.127Z,27
2015-05-05T03:58:56.690Z,27.1
2015-05-05T03:59:15.174Z,27
2015-05-05T03:59:33.676Z,27.1
2015-05-05T03:59:52.067Z,27
2015-05-05T04:00:10.723Z,27.1
2015-05-05T04:00:29.366Z,27.1
2015-05-05T04:00:47.866Z,27.1
2015-05-05T04:01:06.273Z,27.1
2015-05-05T04:01:24.663Z,27.1
2015-05-05T04:01:43.368Z,27.1
2015-05-05T04:02:01.962Z,27.1
2015-05-05T04:02:20.525Z,27.1
2015-05-05T04:02:38.950Z,27.1
2015-05-05T04:02:57.543Z,27.1
2015-05-05T04:03:16.371Z,27.1
2015-05-05T04:03:34.903Z,27.1
2015-05-05T04:03:53.311Z,27.1
2015-05-05T04:04:11.858Z,27.1
2015-05-05T04:04:30.498Z,27.1
2015-05-05T04:04:48.908Z,27.1
2015-05-05T04:05:07.470Z,27.1
2015-05-05T04:05:26.048Z,27
2015-05-05T04:05:44.564Z,27.1
2015-05-05T04:06:03.238Z,27.1
2015-05-05T04:06:21.722Z,27.1
2015-05-05T04:06:40.347Z,27.1
2015-05-05T04:06:58.880Z,27.1
2015-05-05T04:07:17.287Z,27.1
2015-05-05T04:07:36.084Z,27.1
2015-05-05T04:07:54.521Z,27.1
2015-05-05T04:08:12.915Z,27.1
2015-05-05T04:08:31.508Z,27.1
2015-05-05T04:08:50.133Z,27.1
2015-05-05T04:09:08.776Z,27.1
2015-05-05T04:09:27.167Z,27.1